sensor_id;sensor_type;location;lat;lon;timestamp;pressure;altitude;pressure_sealevel;temperature;humidity
66742;BME280;53654;54.152;19.432;2024-03-29T00:01:07;99508.04;;;10.84;73.56
66742;BME280;53654;54.152;19.432;2024-03-29T00:03:51;99522.52;;;10.84;73.21
66742;BME280;53654;54.152;19.432;2024-03-29T00:06:21;99529.48;;;10.85;73.06
66742;BME280;53654;54.152;19.432;2024-03-29T00:08:48;99530.64;;;10.86;73.17
66742;BME280;53654;54.152;19.432;2024-03-29T00:11:16;99534.27;;;10.88;73.31
66742;BME280;53654;54.152;19.432;2024-03-29T00:13:44;99540.88;;;10.89;73.14
66742;BME280;53654;54.152;19.432;2024-03-29T00:16:12;99550.95;;;10.90;72.88
66742;BME280;53654;54.152;19.432;2024-03-29T00:18:40;99553.71;;;10.91;72.45
66742;BME280;53654;54.152;19.432;2024-03-29T00:21:08;99557.73;;;10.91;72.41
66742;BME280;53654;54.152;19.432;2024-03-29T00:23:36;99562.94;;;10.92;72.58
66742;BME280;53654;54.152;19.432;2024-03-29T00:26:05;99569.58;;;10.91;72.21
66742;BME280;53654;54.152;19.432;2024-03-29T00:28:32;99574.83;;;10.91;72.04
66742;BME280;53654;54.152;19.432;2024-03-29T00:31:00;99578.68;;;10.90;71.64
66742;BME280;53654;54.152;19.432;2024-03-29T00:33:28;99583.22;;;10.91;71.86
66742;BME280;53654;54.152;19.432;2024-03-29T00:35:56;99585.52;;;10.90;72.01
66742;BME280;53654;54.152;19.432;2024-03-29T00:38:24;99589.15;;;10.90;71.78
66742;BME280;53654;54.152;19.432;2024-03-29T00:40:53;99595.09;;;10.90;71.36
66742;BME280;53654;54.152;19.432;2024-03-29T00:43:20;99603.10;;;10.91;71.47
66742;BME280;53654;54.152;19.432;2024-03-29T00:45:48;99606.41;;;10.91;71.53
66742;BME280;53654;54.152;19.432;2024-03-29T00:48:17;99611.30;;;10.91;71.00
66742;BME280;53654;54.152;19.432;2024-03-29T00:50:47;99620.08;;;10.89;70.86
66742;BME280;53654;54.152;19.432;2024-03-29T00:53:15;99620.61;;;10.89;70.91
66742;BME280;53654;54.152;19.432;2024-03-29T00:55:44;99623.77;;;10.88;70.83
66742;BME280;53654;54.152;19.432;2024-03-29T00:58:11;99628.65;;;10.88;71.07
66742;BME280;53654;54.152;19.432;2024-03-29T01:00:39;99633.19;;;10.88;71.39
66742;BME280;53654;54.152;19.432;2024-03-29T01:03:07;99639.80;;;10.89;71.57
66742;BME280;53654;54.152;19.432;2024-03-29T01:05:35;99642.06;;;10.89;71.28
66742;BME280;53654;54.152;19.432;2024-03-29T01:08:05;99643.26;;;10.90;70.89
66742;BME280;53654;54.152;19.432;2024-03-29T01:10:33;99649.73;;;10.89;70.87
66742;BME280;53654;54.152;19.432;2024-03-29T01:13:01;99655.20;;;10.87;70.70
66742;BME280;53654;54.152;19.432;2024-03-29T01:15:30;99658.52;;;10.87;70.72
66742;BME280;53654;54.152;19.432;2024-03-29T01:17:58;99662.37;;;10.86;70.26
66742;BME280;53654;54.152;19.432;2024-03-29T01:20:26;99666.23;;;10.86;70.24
66742;BME280;53654;54.152;19.432;2024-03-29T01:22:53;99672.55;;;10.85;70.40
66742;BME280;53654;54.152;19.432;2024-03-29T01:25:22;99675.17;;;10.84;70.48
66742;BME280;53654;54.152;19.432;2024-03-29T01:27:51;99672.44;;;10.82;70.03
66742;BME280;53654;54.152;19.432;2024-03-29T01:30:19;99674.61;;;10.79;70.02
66742;BME280;53654;54.152;19.432;2024-03-29T01:32:47;99683.54;;;10.78;70.07
66742;BME280;53654;54.152;19.432;2024-03-29T01:35:15;99694.73;;;10.76;70.37
66742;BME280;53654;54.152;19.432;2024-03-29T01:37:43;99703.89;;;10.73;70.45
66742;BME280;53654;54.152;19.432;2024-03-29T01:40:12;99711.64;;;10.71;69.99
66742;BME280;53654;54.152;19.432;2024-03-29T01:42:40;99717.14;;;10.66;70.16
66742;BME280;53654;54.152;19.432;2024-03-29T01:45:08;99722.08;;;10.64;70.59
66742;BME280;53654;54.152;19.432;2024-03-29T01:47:36;99720.92;;;10.61;70.81
66742;BME280;53654;54.152;19.432;2024-03-29T01:50:05;99730.86;;;10.62;70.64
66742;BME280;53654;54.152;19.432;2024-03-29T01:52:33;99738.42;;;10.59;70.32
66742;BME280;53654;54.152;19.432;2024-03-29T01:55:01;99743.48;;;10.59;70.23
66742;BME280;53654;54.152;19.432;2024-03-29T01:57:29;99753.23;;;10.59;69.91
66742;BME280;53654;54.152;19.432;2024-03-29T01:59:57;99756.39;;;10.59;69.86
66742;BME280;53654;54.152;19.432;2024-03-29T02:02:25;99764.05;;;10.59;69.56
66742;BME280;53654;54.152;19.432;2024-03-29T02:04:53;99763.50;;;10.61;69.27
66742;BME280;53654;54.152;19.432;2024-03-29T02:07:23;99768.89;;;10.61;69.05
66742;BME280;53654;54.152;19.432;2024-03-29T02:09:51;99776.40;;;10.61;68.65
66742;BME280;53654;54.152;19.432;2024-03-29T02:12:19;99783.93;;;10.59;68.46
66742;BME280;53654;54.152;19.432;2024-03-29T02:14:47;99791.30;;;10.57;68.43
66742;BME280;53654;54.152;19.432;2024-03-29T02:17:15;99798.90;;;10.53;68.09
66742;BME280;53654;54.152;19.432;2024-03-29T02:19:43;99801.58;;;10.51;68.20
66742;BME280;53654;54.152;19.432;2024-03-29T02:25:41;99823.45;;;10.38;68.51
66742;BME280;53654;54.152;19.432;2024-03-29T02:28:09;99826.95;;;10.38;68.50
66742;BME280;53654;54.152;19.432;2024-03-29T02:30:37;99836.02;;;10.38;68.16
66742;BME280;53654;54.152;19.432;2024-03-29T02:33:05;99843.38;;;10.36;68.13
66742;BME280;53654;54.152;19.432;2024-03-29T02:35:33;99848.85;;;10.33;67.92
66742;BME280;53654;54.152;19.432;2024-03-29T02:38:01;99855.77;;;10.28;67.72
66742;BME280;53654;54.152;19.432;2024-03-29T02:40:29;99857.08;;;10.23;67.67
66742;BME280;53654;54.152;19.432;2024-03-29T02:42:57;99863.10;;;10.17;67.60
66742;BME280;53654;54.152;19.432;2024-03-29T02:45:24;99861.83;;;10.11;67.87
66742;BME280;53654;54.152;19.432;2024-03-29T02:47:52;99863.86;;;10.05;67.76
66742;BME280;53654;54.152;19.432;2024-03-29T02:50:20;99862.60;;;9.99;67.70
66742;BME280;53654;54.152;19.432;2024-03-29T02:52:49;99869.17;;;9.92;67.93
66742;BME280;53654;54.152;19.432;2024-03-29T02:55:16;99874.51;;;9.87;68.11
66742;BME280;53654;54.152;19.432;2024-03-29T02:57:44;99874.08;;;9.82;68.17
66742;BME280;53654;54.152;19.432;2024-03-29T03:00:13;99882.20;;;9.76;68.26
66742;BME280;53654;54.152;19.432;2024-03-29T03:02:41;99890.66;;;9.71;68.59
66742;BME280;53654;54.152;19.432;2024-03-29T03:05:09;99898.09;;;9.64;68.59
66742;BME280;53654;54.152;19.432;2024-03-29T03:07:37;99907.25;;;9.59;68.72
66742;BME280;53654;54.152;19.432;2024-03-29T03:10:23;99909.50;;;9.51;68.71
66742;BME280;53654;54.152;19.432;2024-03-29T03:13:10;99919.91;;;9.42;69.08
66742;BME280;53654;54.152;19.432;2024-03-29T03:15:38;99924.88;;;9.36;69.33
66742;BME280;53654;54.152;19.432;2024-03-29T03:18:06;99929.98;;;9.32;69.33
66742;BME280;53654;54.152;19.432;2024-03-29T03:20:34;99932.35;;;9.26;69.73
66742;BME280;53654;54.152;19.432;2024-03-29T03:23:02;99934.33;;;9.23;69.65
66742;BME280;53654;54.152;19.432;2024-03-29T03:25:30;99939.77;;;9.19;69.60
66742;BME280;53654;54.152;19.432;2024-03-29T03:27:58;99944.02;;;9.15;69.75
66742;BME280;53654;54.152;19.432;2024-03-29T03:30:26;99948.09;;;9.11;69.80
66742;BME280;53654;54.152;19.432;2024-03-29T03:32:54;99952.69;;;9.06;70.05
66742;BME280;53654;54.152;19.432;2024-03-29T03:35:22;99957.80;;;9.01;70.18
66742;BME280;53654;54.152;19.432;2024-03-29T03:37:49;99960.48;;;8.96;70.33
66742;BME280;53654;54.152;19.432;2024-03-29T03:40:17;99965.25;;;8.91;70.53
66742;BME280;53654;54.152;19.432;2024-03-29T03:42:45;99971.73;;;8.87;70.73
66742;BME280;53654;54.152;19.432;2024-03-29T03:45:13;99977.89;;;8.83;70.51
66742;BME280;53654;54.152;19.432;2024-03-29T03:47:41;99980.05;;;8.77;70.36
66742;BME280;53654;54.152;19.432;2024-03-29T03:50:09;99990.05;;;8.70;70.54
66742;BME280;53654;54.152;19.432;2024-03-29T03:52:37;99990.80;;;8.66;70.85
66742;BME280;53654;54.152;19.432;2024-03-29T03:55:06;99993.98;;;8.61;70.94
66742;BME280;53654;54.152;19.432;2024-03-29T03:57:34;99998.23;;;8.56;71.08
66742;BME280;53654;54.152;19.432;2024-03-29T04:00:03;100001.41;;;8.52;71.33
66742;BME280;53654;54.152;19.432;2024-03-29T04:02:38;100001.98;;;8.47;71.41
66742;BME280;53654;54.152;19.432;2024-03-29T04:05:07;99999.94;;;8.44;71.49
66742;BME280;53654;54.152;19.432;2024-03-29T04:07:35;100001.89;;;8.41;71.53
66742;BME280;53654;54.152;19.432;2024-03-29T04:10:03;100003.13;;;8.38;71.51
66742;BME280;53654;54.152;19.432;2024-03-29T04:12:31;100006.83;;;8.33;71.49
66742;BME280;53654;54.152;19.432;2024-03-29T04:14:59;100013.96;;;8.30;71.41
66742;BME280;53654;54.152;19.432;2024-03-29T04:17:27;100015.73;;;8.28;71.39
66742;BME280;53654;54.152;19.432;2024-03-29T04:19:55;100019.75;;;8.25;71.39
66742;BME280;53654;54.152;19.432;2024-03-29T04:22:23;100019.10;;;8.21;71.46
66742;BME280;53654;54.152;19.432;2024-03-29T04:24:51;100017.58;;;8.17;71.54
66742;BME280;53654;54.152;19.432;2024-03-29T04:27:19;100021.61;;;8.13;71.60
66742;BME280;53654;54.152;19.432;2024-03-29T04:29:50;100021.15;;;8.08;71.59
66742;BME280;53654;54.152;19.432;2024-03-29T04:32:19;100017.70;;;8.05;71.89
66742;BME280;53654;54.152;19.432;2024-03-29T04:34:48;100014.94;;;8.03;71.91
66742;BME280;53654;54.152;19.432;2024-03-29T04:37:16;100013.22;;;8.01;71.70
66742;BME280;53654;54.152;19.432;2024-03-29T04:39:45;100009.06;;;8.00;71.61
66742;BME280;53654;54.152;19.432;2024-03-29T04:42:13;100003.87;;;7.98;71.86
66742;BME280;53654;54.152;19.432;2024-03-29T04:44:42;100005.27;;;7.98;72.00
66742;BME280;53654;54.152;19.432;2024-03-29T04:47:10;100007.87;;;7.97;71.95
66742;BME280;53654;54.152;19.432;2024-03-29T04:49:38;100008.91;;;7.98;71.98
66742;BME280;53654;54.152;19.432;2024-03-29T04:52:06;100005.44;;;7.98;72.08
66742;BME280;53654;54.152;19.432;2024-03-29T04:54:34;100008.89;;;8.00;71.89
66742;BME280;53654;54.152;19.432;2024-03-29T04:57:03;100010.45;;;8.01;71.56
66742;BME280;53654;54.152;19.432;2024-03-29T04:59:33;100010.08;;;8.03;71.54
66742;BME280;53654;54.152;19.432;2024-03-29T05:02:01;100004.85;;;8.04;71.69
66742;BME280;53654;54.152;19.432;2024-03-29T05:04:29;100006.66;;;8.15;72.06
66742;BME280;53654;54.152;19.432;2024-03-29T05:06:58;100004.73;;;8.63;71.85
66742;BME280;53654;54.152;19.432;2024-03-29T05:09:26;100000.09;;;9.35;69.58
66742;BME280;53654;54.152;19.432;2024-03-29T05:11:54;99996.14;;;9.85;67.51
66742;BME280;53654;54.152;19.432;2024-03-29T05:14:22;100000.11;;;10.07;65.59
66742;BME280;53654;54.152;19.432;2024-03-29T05:16:50;100004.09;;;10.08;64.38
66742;BME280;53654;54.152;19.432;2024-03-29T05:19:18;100003.88;;;10.10;63.76
66742;BME280;53654;54.152;19.432;2024-03-29T05:21:46;100002.11;;;10.12;63.27
66742;BME280;53654;54.152;19.432;2024-03-29T05:24:14;100006.43;;;10.14;63.08
66742;BME280;53654;54.152;19.432;2024-03-29T05:26:42;100006.95;;;10.14;62.93
66742;BME280;53654;54.152;19.432;2024-03-29T05:29:10;100004.46;;;10.17;63.17
66742;BME280;53654;54.152;19.432;2024-03-29T05:31:38;100015.54;;;10.22;62.89
66742;BME280;53654;54.152;19.432;2024-03-29T05:34:06;100018.88;;;10.30;62.42
66742;BME280;53654;54.152;19.432;2024-03-29T05:36:34;100014.24;;;10.45;62.13
66742;BME280;53654;54.152;19.432;2024-03-29T05:39:03;100018.91;;;10.90;61.43
66742;BME280;53654;54.152;19.432;2024-03-29T05:41:34;100014.37;;;11.73;59.92
66742;BME280;53654;54.152;19.432;2024-03-29T05:44:03;100016.95;;;12.49;57.15
66742;BME280;53654;54.152;19.432;2024-03-29T05:46:31;100023.23;;;12.80;55.78
66742;BME280;53654;54.152;19.432;2024-03-29T05:48:59;100037.34;;;12.94;55.42
66742;BME280;53654;54.152;19.432;2024-03-29T05:51:27;100040.27;;;12.96;55.05
66742;BME280;53654;54.152;19.432;2024-03-29T05:53:55;100046.64;;;12.82;55.02
66742;BME280;53654;54.152;19.432;2024-03-29T05:56:24;100044.40;;;12.69;55.34
66742;BME280;53654;54.152;19.432;2024-03-29T05:58:52;100044.05;;;12.56;55.59
66742;BME280;53654;54.152;19.432;2024-03-29T06:01:20;100047.70;;;12.44;56.05
66742;BME280;53654;54.152;19.432;2024-03-29T06:03:49;100053.95;;;12.33;56.28
66742;BME280;53654;54.152;19.432;2024-03-29T06:06:20;100063.89;;;12.21;56.81
66742;BME280;53654;54.152;19.432;2024-03-29T06:08:51;100058.39;;;12.10;56.86
66742;BME280;53654;54.152;19.432;2024-03-29T06:11:19;100056.60;;;12.05;57.22
66742;BME280;53654;54.152;19.432;2024-03-29T06:13:47;100052.02;;;12.00;57.54
66742;BME280;53654;54.152;19.432;2024-03-29T06:16:24;100051.28;;;11.94;57.67
66742;BME280;53654;54.152;19.432;2024-03-29T06:19:10;100052.11;;;11.88;58.20
66742;BME280;53654;54.152;19.432;2024-03-29T06:21:38;100050.75;;;11.87;58.29
66742;BME280;53654;54.152;19.432;2024-03-29T06:24:09;100052.50;;;11.87;58.57
66742;BME280;53654;54.152;19.432;2024-03-29T06:26:40;100049.87;;;11.87;58.62
66742;BME280;53654;54.152;19.432;2024-03-29T06:29:09;100051.13;;;11.93;59.02
66742;BME280;53654;54.152;19.432;2024-03-29T06:31:37;100052.70;;;11.93;59.28
66742;BME280;53654;54.152;19.432;2024-03-29T06:34:05;100057.67;;;11.89;58.53
66742;BME280;53654;54.152;19.432;2024-03-29T06:36:35;100051.95;;;11.88;58.48
66742;BME280;53654;54.152;19.432;2024-03-29T06:39:04;100045.40;;;11.84;58.54
66742;BME280;53654;54.152;19.432;2024-03-29T06:41:32;100042.18;;;11.80;58.96
66742;BME280;53654;54.152;19.432;2024-03-29T06:44:00;100043.58;;;11.81;59.05
66742;BME280;53654;54.152;19.432;2024-03-29T06:46:28;100049.36;;;11.80;59.61
66742;BME280;53654;54.152;19.432;2024-03-29T06:48:56;100053.23;;;11.79;59.37
66742;BME280;53654;54.152;19.432;2024-03-29T06:51:24;100044.69;;;11.78;59.36
66742;BME280;53654;54.152;19.432;2024-03-29T06:53:53;100046.23;;;11.79;59.35
66742;BME280;53654;54.152;19.432;2024-03-29T06:56:21;100053.09;;;11.85;59.49
66742;BME280;53654;54.152;19.432;2024-03-29T06:58:49;100057.98;;;11.91;59.64
66742;BME280;53654;54.152;19.432;2024-03-29T07:01:17;100060.64;;;11.98;59.63
66742;BME280;53654;54.152;19.432;2024-03-29T07:03:45;100063.17;;;12.01;58.92
66742;BME280;53654;54.152;19.432;2024-03-29T07:06:13;100080.77;;;12.03;58.86
66742;BME280;53654;54.152;19.432;2024-03-29T07:08:41;100079.96;;;12.07;58.54
66742;BME280;53654;54.152;19.432;2024-03-29T07:11:09;100076.08;;;12.09;58.47
66742;BME280;53654;54.152;19.432;2024-03-29T07:13:38;100076.20;;;12.11;58.64
66742;BME280;53654;54.152;19.432;2024-03-29T07:16:06;100077.49;;;12.15;58.61
66742;BME280;53654;54.152;19.432;2024-03-29T07:18:37;100087.95;;;12.17;58.50
66742;BME280;53654;54.152;19.432;2024-03-29T07:21:06;100089.46;;;12.19;58.50
66742;BME280;53654;54.152;19.432;2024-03-29T07:23:38;100085.57;;;12.21;58.56
66742;BME280;53654;54.152;19.432;2024-03-29T07:26:06;100095.96;;;12.24;58.32
66742;BME280;53654;54.152;19.432;2024-03-29T07:28:33;100096.42;;;12.27;58.14
66742;BME280;53654;54.152;19.432;2024-03-29T07:31:06;100100.71;;;12.30;58.84
66742;BME280;53654;54.152;19.432;2024-03-29T07:33:37;100106.84;;;12.30;58.14
66742;BME280;53654;54.152;19.432;2024-03-29T07:36:06;100107.06;;;12.35;57.75
66742;BME280;53654;54.152;19.432;2024-03-29T07:38:37;100115.96;;;12.35;58.15
66742;BME280;53654;54.152;19.432;2024-03-29T07:41:08;100123.58;;;12.39;57.64
66742;BME280;53654;54.152;19.432;2024-03-29T07:43:41;100127.65;;;12.43;57.51
66742;BME280;53654;54.152;19.432;2024-03-29T07:46:09;100133.86;;;12.47;57.95
66742;BME280;53654;54.152;19.432;2024-03-29T07:48:37;100140.23;;;12.51;58.00
66742;BME280;53654;54.152;19.432;2024-03-29T07:51:05;100144.76;;;12.58;58.04
66742;BME280;53654;54.152;19.432;2024-03-29T07:53:33;100149.31;;;12.65;57.72
66742;BME280;53654;54.152;19.432;2024-03-29T07:56:01;100153.73;;;12.70;57.45
66742;BME280;53654;54.152;19.432;2024-03-29T07:58:29;100157.54;;;12.78;57.21
66742;BME280;53654;54.152;19.432;2024-03-29T08:00:57;100159.06;;;12.80;56.24
66742;BME280;53654;54.152;19.432;2024-03-29T08:03:24;100158.36;;;12.80;56.37
66742;BME280;53654;54.152;19.432;2024-03-29T08:05:59;100160.14;;;12.79;56.54
66742;BME280;53654;54.152;19.432;2024-03-29T08:08:27;100165.85;;;12.82;56.97
66742;BME280;53654;54.152;19.432;2024-03-29T08:10:55;100168.81;;;12.88;57.41
66742;BME280;53654;54.152;19.432;2024-03-29T08:13:24;100171.79;;;12.95;56.98
66742;BME280;53654;54.152;19.432;2024-03-29T08:15:57;100172.33;;;13.01;56.78
66742;BME280;53654;54.152;19.432;2024-03-29T08:18:26;100179.61;;;13.09;57.02
66742;BME280;53654;54.152;19.432;2024-03-29T08:20:55;100184.25;;;13.20;56.14
66742;BME280;53654;54.152;19.432;2024-03-29T08:23:23;100181.16;;;13.31;56.46
66742;BME280;53654;54.152;19.432;2024-03-29T08:25:51;100177.58;;;13.39;55.54
66742;BME280;53654;54.152;19.432;2024-03-29T08:28:19;100176.77;;;13.49;55.66
66742;BME280;53654;54.152;19.432;2024-03-29T08:31:00;100184.01;;;13.59;55.56
66742;BME280;53654;54.152;19.432;2024-03-29T08:33:28;100185.19;;;13.66;54.62
66742;BME280;53654;54.152;19.432;2024-03-29T08:35:58;100183.94;;;13.78;54.98
66742;BME280;53654;54.152;19.432;2024-03-29T08:38:26;100176.03;;;13.96;54.98
66742;BME280;53654;54.152;19.432;2024-03-29T08:40:54;100171.45;;;14.18;54.29
66742;BME280;53654;54.152;19.432;2024-03-29T08:43:22;100171.18;;;14.37;53.30
66742;BME280;53654;54.152;19.432;2024-03-29T08:45:50;100180.97;;;14.55;52.93
66742;BME280;53654;54.152;19.432;2024-03-29T08:48:18;100178.81;;;14.72;52.34
66742;BME280;53654;54.152;19.432;2024-03-29T08:50:46;100181.84;;;14.86;51.35
66742;BME280;53654;54.152;19.432;2024-03-29T08:53:14;100186.91;;;15.01;51.88
66742;BME280;53654;54.152;19.432;2024-03-29T08:55:42;100185.67;;;15.16;51.79
66742;BME280;53654;54.152;19.432;2024-03-29T08:58:10;100186.18;;;15.26;51.27
66742;BME280;53654;54.152;19.432;2024-03-29T09:00:38;100187.34;;;15.33;50.93
66742;BME280;53654;54.152;19.432;2024-03-29T09:03:06;100190.85;;;15.38;51.05
66742;BME280;53654;54.152;19.432;2024-03-29T09:05:34;100189.69;;;15.45;50.55
66742;BME280;53654;54.152;19.432;2024-03-29T09:08:03;100200.35;;;15.47;50.55
66742;BME280;53654;54.152;19.432;2024-03-29T09:10:31;100194.20;;;15.47;50.40
66742;BME280;53654;54.152;19.432;2024-03-29T09:12:59;100199.90;;;15.45;50.63
66742;BME280;53654;54.152;19.432;2024-03-29T09:15:27;100205.90;;;15.44;50.72
66742;BME280;53654;54.152;19.432;2024-03-29T09:17:55;100211.16;;;15.40;50.11
66742;BME280;53654;54.152;19.432;2024-03-29T09:20:24;100212.04;;;15.35;50.35
66742;BME280;53654;54.152;19.432;2024-03-29T09:22:52;100219.92;;;15.31;50.53
66742;BME280;53654;54.152;19.432;2024-03-29T09:25:20;100219.68;;;15.28;50.34
66742;BME280;53654;54.152;19.432;2024-03-29T09:27:48;100223.85;;;15.25;50.56
66742;BME280;53654;54.152;19.432;2024-03-29T09:30:16;100224.17;;;15.21;50.92
66742;BME280;53654;54.152;19.432;2024-03-29T09:32:46;100222.38;;;15.17;50.67
66742;BME280;53654;54.152;19.432;2024-03-29T09:35:17;100222.91;;;15.16;50.73
66742;BME280;53654;54.152;19.432;2024-03-29T09:37:45;100220.30;;;15.16;51.33
66742;BME280;53654;54.152;19.432;2024-03-29T09:40:14;100215.27;;;15.14;50.92
66742;BME280;53654;54.152;19.432;2024-03-29T09:42:43;100212.51;;;15.12;50.33
66742;BME280;53654;54.152;19.432;2024-03-29T09:45:11;100205.30;;;15.08;50.37
66742;BME280;53654;54.152;19.432;2024-03-29T09:47:41;100205.54;;;15.06;50.11
66742;BME280;53654;54.152;19.432;2024-03-29T09:50:10;100204.48;;;15.01;50.06
66742;BME280;53654;54.152;19.432;2024-03-29T09:52:39;100208.60;;;14.99;50.45
66742;BME280;53654;54.152;19.432;2024-03-29T09:55:08;100204.30;;;14.96;50.12
66742;BME280;53654;54.152;19.432;2024-03-29T09:57:37;100207.84;;;14.95;50.69
66742;BME280;53654;54.152;19.432;2024-03-29T10:00:05;100212.54;;;14.97;51.44
66742;BME280;53654;54.152;19.432;2024-03-29T10:02:36;100223.84;;;15.00;51.61
66742;BME280;53654;54.152;19.432;2024-03-29T10:05:06;100231.48;;;15.02;50.82
66742;BME280;53654;54.152;19.432;2024-03-29T10:07:36;100230.52;;;15.00;49.99
66742;BME280;53654;54.152;19.432;2024-03-29T10:10:05;100245.88;;;14.97;50.75
66742;BME280;53654;54.152;19.432;2024-03-29T10:12:33;100253.58;;;14.98;50.47
66742;BME280;53654;54.152;19.432;2024-03-29T10:15:06;100255.06;;;14.96;49.96
66742;BME280;53654;54.152;19.432;2024-03-29T10:17:39;100259.22;;;14.93;49.56
66742;BME280;53654;54.152;19.432;2024-03-29T10:20:08;100264.35;;;14.86;49.81
66742;BME280;53654;54.152;19.432;2024-03-29T10:22:45;100262.56;;;14.87;50.47
66742;BME280;53654;54.152;19.432;2024-03-29T10:25:13;100258.84;;;14.88;51.20
66742;BME280;53654;54.152;19.432;2024-03-29T10:27:42;100258.61;;;14.90;50.99
66742;BME280;53654;54.152;19.432;2024-03-29T10:30:11;100251.03;;;14.91;50.22
66742;BME280;53654;54.152;19.432;2024-03-29T10:32:44;100252.77;;;14.91;49.75
66742;BME280;53654;54.152;19.432;2024-03-29T10:35:12;100250.04;;;14.94;49.62
66742;BME280;53654;54.152;19.432;2024-03-29T10:37:42;100254.86;;;14.97;49.24
66742;BME280;53654;54.152;19.432;2024-03-29T10:40:11;100250.40;;;14.99;49.35
66742;BME280;53654;54.152;19.432;2024-03-29T10:42:45;100252.45;;;15.01;49.91
66742;BME280;53654;54.152;19.432;2024-03-29T10:45:16;100254.95;;;15.04;50.16
66742;BME280;53654;54.152;19.432;2024-03-29T10:47:45;100257.02;;;15.10;50.81
66742;BME280;53654;54.152;19.432;2024-03-29T10:50:19;100256.05;;;15.18;51.64
66742;BME280;53654;54.152;19.432;2024-03-29T10:52:48;100260.98;;;15.28;51.01
66742;BME280;53654;54.152;19.432;2024-03-29T10:55:16;100264.66;;;15.38;50.02
66742;BME280;53654;54.152;19.432;2024-03-29T10:57:46;100270.16;;;15.41;49.76
66742;BME280;53654;54.152;19.432;2024-03-29T11:00:19;100270.92;;;15.45;50.53
66742;BME280;53654;54.152;19.432;2024-03-29T11:05:18;100271.96;;;15.50;50.80
66742;BME280;53654;54.152;19.432;2024-03-29T11:07:49;100268.55;;;15.52;49.65
66742;BME280;53654;54.152;19.432;2024-03-29T11:13:12;100269.86;;;15.45;49.35
66742;BME280;53654;54.152;19.432;2024-03-29T11:15:44;100268.95;;;15.36;49.19
66742;BME280;53654;54.152;19.432;2024-03-29T11:18:14;100271.61;;;15.35;50.13
66742;BME280;53654;54.152;19.432;2024-03-29T11:20:46;100278.45;;;15.40;49.90
66742;BME280;53654;54.152;19.432;2024-03-29T11:23:20;100276.71;;;15.40;48.99
66742;BME280;53654;54.152;19.432;2024-03-29T11:25:55;100277.55;;;15.41;49.33
66742;BME280;53654;54.152;19.432;2024-03-29T11:28:35;100284.54;;;15.47;49.44
66742;BME280;53654;54.152;19.432;2024-03-29T11:31:05;100288.42;;;15.52;49.40
66742;BME280;53654;54.152;19.432;2024-03-29T11:33:56;100292.13;;;15.57;49.24
66742;BME280;53654;54.152;19.432;2024-03-29T11:36:23;100300.99;;;15.61;48.77
66742;BME280;53654;54.152;19.432;2024-03-29T11:38:53;100303.97;;;15.61;48.49
66742;BME280;53654;54.152;19.432;2024-03-29T11:41:22;100299.49;;;15.58;48.25
66742;BME280;53654;54.152;19.432;2024-03-29T11:43:51;100286.69;;;15.56;47.78
66742;BME280;53654;54.152;19.432;2024-03-29T11:46:19;100276.00;;;15.55;47.66
66742;BME280;53654;54.152;19.432;2024-03-29T11:48:48;100276.98;;;15.58;47.86
66742;BME280;53654;54.152;19.432;2024-03-29T11:51:22;100278.22;;;15.57;48.16
66742;BME280;53654;54.152;19.432;2024-03-29T11:53:52;100271.86;;;15.64;47.80
66742;BME280;53654;54.152;19.432;2024-03-29T11:56:20;100268.34;;;15.73;47.07
66742;BME280;53654;54.152;19.432;2024-03-29T11:58:48;100266.44;;;15.82;47.29
66742;BME280;53654;54.152;19.432;2024-03-29T12:01:16;100268.45;;;15.94;47.58
66742;BME280;53654;54.152;19.432;2024-03-29T12:03:44;100263.70;;;16.03;46.65
66742;BME280;53654;54.152;19.432;2024-03-29T12:06:14;100256.52;;;16.11;46.01
66742;BME280;53654;54.152;19.432;2024-03-29T12:08:43;100252.71;;;16.19;45.59
66742;BME280;53654;54.152;19.432;2024-03-29T12:11:11;100251.41;;;16.25;45.25
66742;BME280;53654;54.152;19.432;2024-03-29T12:13:39;100260.94;;;16.28;45.15
66742;BME280;53654;54.152;19.432;2024-03-29T12:16:08;100265.30;;;16.30;45.16
66742;BME280;53654;54.152;19.432;2024-03-29T12:18:36;100262.52;;;16.33;45.64
66742;BME280;53654;54.152;19.432;2024-03-29T12:21:04;100261.94;;;16.34;45.24
66742;BME280;53654;54.152;19.432;2024-03-29T12:23:32;100261.77;;;16.34;44.82
66742;BME280;53654;54.152;19.432;2024-03-29T12:26:00;100258.33;;;16.32;44.34
66742;BME280;53654;54.152;19.432;2024-03-29T12:28:28;100260.39;;;16.29;44.11
66742;BME280;53654;54.152;19.432;2024-03-29T12:30:58;100257.58;;;16.25;43.89
66742;BME280;53654;54.152;19.432;2024-03-29T12:33:26;100266.67;;;16.22;43.80
66742;BME280;53654;54.152;19.432;2024-03-29T12:35:57;100268.36;;;16.19;43.86
66742;BME280;53654;54.152;19.432;2024-03-29T12:38:25;100269.98;;;16.18;44.13
66742;BME280;53654;54.152;19.432;2024-03-29T12:40:53;100267.33;;;16.18;44.11
66742;BME280;53654;54.152;19.432;2024-03-29T12:43:23;100273.29;;;16.19;43.88
66742;BME280;53654;54.152;19.432;2024-03-29T12:45:51;100276.52;;;16.22;44.07
66742;BME280;53654;54.152;19.432;2024-03-29T12:48:21;100281.14;;;16.25;44.27
66742;BME280;53654;54.152;19.432;2024-03-29T12:50:50;100285.65;;;16.31;44.55
66742;BME280;53654;54.152;19.432;2024-03-29T12:53:20;100283.65;;;16.37;43.70
66742;BME280;53654;54.152;19.432;2024-03-29T12:55:48;100279.20;;;16.38;43.28
66742;BME280;53654;54.152;19.432;2024-03-29T12:58:17;100287.43;;;16.39;43.42
66742;BME280;53654;54.152;19.432;2024-03-29T13:00:49;100287.69;;;16.42;43.81
66742;BME280;53654;54.152;19.432;2024-03-29T13:03:17;100299.61;;;16.43;43.87